Time,TemperatureF,DewpointF,PressureIn,WindDirection,WindDirectionDegrees,WindSpeedMPH,WindSpeedGustMPH,Humidity,HourlyPrecipIn,Conditions,Clouds,dailyrainin,SoftwareType,DateUTC
2013-01-14 00:03:00,76.5,51.0,27.05,ESE,117,5.4,5.4,32,0.00,,---,0.00,VWS V14.01,2013-01-14 06:03:00,
2013-01-14 00:08:00,76.5,51.0,27.05,SE,141,7.6,7.6,32,0.00,,---,0.00,VWS V14.01,2013-01-14 06:08:00,
2013-01-14 00:13:00,76.5,51.0,27.05,SSW,206,5.4,5.4,32,0.00,,---,0.00,VWS V14.01,2013-01-14 06:13:00,
2013-01-14 00:18:00,76.5,51.0,27.05,SSE,148,10.1,10.1,32,0.00,,---,0.00,VWS V14.01,2013-01-14 06:18:00,
2013-01-14 00:23:00,76.5,51.0,27.02,SSW,202,8.7,8.7,32,0.00,,---,0.00,VWS V14.01,2013-01-14 06:23:00,
2013-01-14 00:28:00,76.5,51.0,27.02,SSE,151,8.1,8.1,32,0.00,,---,0.00,VWS V14.01,2013-01-14 06:28:00,
2013-01-14 00:33:00,76.5,51.0,27.02,SSE,158,7.6,13.6,32,0.00,,---,0.00,VWS V14.01,2013-01-14 06:33:00,
2013-01-14 00:38:00,76.5,51.0,27.02,ESE,123,5.8,9.6,32,0.00,,---,0.00,VWS V14.01,2013-01-14 06:38:00,
2013-01-14 00:43:00,76.5,51.0,27.05,SE,133,4.0,11.0,32,0.00,,---,0.00,VWS V14.01,2013-01-14 06:43:00,
2013-01-14 00:48:00,76.5,51.0,27.05,SE,135,8.7,10.5,32,0.00,,---,0.00,VWS V14.01,2013-01-14 06:48:00,
2013-01-14 00:53:00,76.5,51.0,27.05,SSE,155,5.8,8.3,32,0.00,,---,0.00,VWS V14.01,2013-01-14 06:53:00,
2013-01-14 00:58:00,76.5,51.0,27.02,South,181,6.3,11.0,32,0.00,,---,0.00,VWS V14.01,2013-01-14 06:58:00,
2013-01-14 01:03:00,76.5,51.0,27.02,SSE,148,10.5,10.5,32,0.00,,---,0.00,VWS V14.01,2013-01-14 07:03:00,
2013-01-14 01:08:00,76.5,51.0,27.02,SSE,164,5.8,5.8,32,0.00,,---,0.00,VWS V14.01,2013-01-14 07:08:00,
2013-01-14 01:13:00,76.5,51.0,27.02,SSE,165,7.2,10.1,32,0.00,,---,0.00,VWS V14.01,2013-01-14 07:13:00,
2013-01-14 01:18:00,76.5,51.0,27.02,West,260,6.3,6.3,32,0.00,,---,0.00,VWS V14.01,2013-01-14 07:18:00,
2013-01-14 01:23:00,76.5,51.0,27.02,SE,130,5.8,5.8,32,0.00,,---,0.00,VWS V14.01,2013-01-14 07:23:00,
2013-01-14 01:28:00,76.5,51.0,27.02,SSE,165,3.6,10.5,32,0.00,,---,0.00,VWS V14.01,2013-01-14 07:28:00,
2013-01-14 01:33:00,76.5,51.0,27.02,South,169,2.7,5.8,32,0.00,,---,0.00,VWS V14.01,2013-01-14 07:33:00,
2013-01-14 01:38:00,76.5,51.0,27.02,SSE,163,7.6,8.7,32,0.00,,---,0.00,VWS V14.01,2013-01-14 07:38:00,
2013-01-14 01:43:00,76.5,51.0,27.02,SE,131,6.3,6.7,32,0.00,,---,0.00,VWS V14.01,2013-01-14 07:43:00,
2013-01-14 01:48:00,76.5,51.0,27.02,SSE,148,3.1,6.3,32,0.00,,---,0.00,VWS V14.01,2013-01-14 07:48:00,
2013-01-14 01:53:00,76.5,51.0,27.02,SE,143,3.6,4.0,32,0.00,,---,0.00,VWS V14.01,2013-01-14 07:53:00,
2013-01-14 01:58:00,76.5,51.0,27.02,ENE,68,2.7,3.1,32,0.00,,---,0.00,VWS V14.01,2013-01-14 07:58:00,
2013-01-14 02:03:00,76.5,51.0,27.02,SSE,159,2.7,4.0,32,0.00,,---,0.00,VWS V14.01,2013-01-14 08:03:00,
2013-01-14 02:08:00,76.5,51.0,26.99,ESE,122,6.3,12.8,32,0.00,,---,0.00,VWS V14.01,2013-01-14 08:08:00,
2013-01-14 02:13:00,76.5,51.0,26.99,SE,142,8.7,8.7,32,0.00,,---,0.00,VWS V14.01,2013-01-14 08:13:00,
2013-01-14 02:18:00,76.5,51.0,26.99,SE,145,3.1,5.8,32,0.00,,---,0.00,VWS V14.01,2013-01-14 08:18:00,
2013-01-14 02:23:00,76.5,51.0,27.02,ESE,113,2.7,4.9,32,0.00,,---,0.00,VWS V14.01,2013-01-14 08:23:00,
2013-01-14 02:28:00,76.5,51.0,27.02,ESE,116,5.4,12.3,32,0.00,,---,0.00,VWS V14.01,2013-01-14 08:28:00,
2013-01-14 02:33:00,76.5,51.0,27.02,SE,130,6.3,10.1,32,0.00,,---,0.00,VWS V14.01,2013-01-14 08:33:00,
2013-01-14 02:38:00,76.5,51.0,27.02,South,174,6.3,12.8,32,0.00,,---,0.00,VWS V14.01,2013-01-14 08:38:00,
2013-01-14 02:43:00,76.5,51.0,26.99,SSW,200,7.6,10.5,32,0.00,,---,0.00,VWS V14.01,2013-01-14 08:43:00,
2013-01-14 02:48:00,76.5,51.0,26.99,SSW,193,5.4,11.0,32,0.00,,---,0.00,VWS V14.01,2013-01-14 08:48:00,
2013-01-14 02:53:00,76.5,51.0,26.99,SSW,205,6.3,8.3,32,0.00,,---,0.00,VWS V14.01,2013-01-14 08:53:00,
2013-01-14 02:58:00,76.5,51.0,26.99,SE,140,9.6,9.6,32,0.00,,---,0.00,VWS V14.01,2013-01-14 08:58:00,
2013-01-14 03:03:00,76.5,51.0,26.99,ESE,103,3.1,5.4,32,0.00,,---,0.00,VWS V14.01,2013-01-14 09:03:00,
2013-01-14 03:08:00,76.5,51.0,27.02,SE,134,3.1,5.8,32,0.00,,---,0.00,VWS V14.01,2013-01-14 09:08:00,
2013-01-14 03:13:00,76.5,51.0,27.02,SE,142,7.6,11.4,32,0.00,,---,0.00,VWS V14.01,2013-01-14 09:13:00,
2013-01-14 03:18:00,76.5,51.0,27.02,SE,136,3.6,6.7,32,0.00,,---,0.00,VWS V14.01,2013-01-14 09:18:00,
2013-01-14 03:23:00,76.5,51.0,27.02,ESE,116,7.6,8.3,32,0.00,,---,0.00,VWS V14.01,2013-01-14 09:23:00,
2013-01-14 03:28:00,76.5,51.0,26.99,SE,124,8.3,8.3,32,0.00,,---,0.00,VWS V14.01,2013-01-14 09:28:00,
2013-01-14 03:33:00,76.5,51.0,26.99,SSE,149,2.2,4.0,32,0.00,,---,0.00,VWS V14.01,2013-01-14 09:33:00,
2013-01-14 03:38:00,76.5,51.0,26.99,SE,133,3.1,6.3,32,0.00,,---,0.00,VWS V14.01,2013-01-14 09:38:00,
2013-01-14 03:43:00,76.5,51.0,26.99,ESE,114,5.4,5.4,32,0.00,,---,0.00,VWS V14.01,2013-01-14 09:43:00,
2013-01-14 03:48:00,76.5,51.0,26.99,ENE,74,5.8,9.6,32,0.00,,---,0.00,VWS V14.01,2013-01-14 09:48:00,
2013-01-14 03:53:00,76.5,51.0,26.99,SE,145,7.6,8.3,32,0.00,,---,0.00,VWS V14.01,2013-01-14 09:53:00,
2013-01-14 03:58:00,76.5,51.0,26.99,ESE,109,6.3,8.3,32,0.00,,---,0.00,VWS V14.01,2013-01-14 09:58:00,
2013-01-14 04:03:00,76.5,51.0,26.99,SE,145,3.6,6.3,32,0.00,,---,0.00,VWS V14.01,2013-01-14 10:03:00,
2013-01-14 04:08:00,76.5,51.0,26.99,ESE,120,4.0,7.6,32,0.00,,---,0.00,VWS V14.01,2013-01-14 10:08:00,
2013-01-14 04:13:00,76.5,51.0,27.02,ENE,59,11.0,11.0,32,0.00,,---,0.00,VWS V14.01,2013-01-14 10:13:00,
2013-01-14 04:18:00,76.5,51.0,27.02,East,88,5.8,5.8,32,0.00,,---,0.00,VWS V14.01,2013-01-14 10:18:00,
2013-01-14 04:23:00,76.5,51.0,27.02,SSE,165,2.2,5.4,32,0.00,,---,0.00,VWS V14.01,2013-01-14 10:23:00,
2013-01-14 04:28:00,76.5,51.0,27.02,ESE,103,5.8,10.1,32,0.00,,---,0.00,VWS V14.01,2013-01-14 10:28:00,
2013-01-14 04:33:00,76.5,51.0,27.02,SE,135,6.7,6.7,32,0.00,,---,0.00,VWS V14.01,2013-01-14 10:33:00,
2013-01-14 04:38:00,76.5,51.0,26.99,SSE,158,13.2,13.2,32,0.00,,---,0.00,VWS V14.01,2013-01-14 10:38:00,
2013-01-14 04:43:00,76.5,51.0,26.99,SE,139,5.4,10.5,32,0.00,,---,0.00,VWS V14.01,2013-01-14 10:43:00,
2013-01-14 04:48:00,76.5,51.0,26.99,ESE,119,5.8,6.3,32,0.00,,---,0.00,VWS V14.01,2013-01-14 10:48:00,
2013-01-14 04:53:00,76.5,51.0,26.99,ESE,119,5.8,6.7,32,0.00,,---,0.00,VWS V14.01,2013-01-14 10:53:00,
2013-01-14 04:58:00,76.5,51.0,27.02,East,97,3.6,6.7,32,0.00,,---,0.00,VWS V14.01,2013-01-14 10:58:00,
2013-01-14 05:03:00,76.5,51.0,27.02,ENE,71,11.0,12.3,32,0.00,,---,0.00,VWS V14.01,2013-01-14 11:03:00,
2013-01-14 05:08:00,76.5,51.0,27.02,ESE,116,5.4,10.5,32,0.00,,---,0.00,VWS V14.01,2013-01-14 11:08:00,
2013-01-14 05:13:00,76.5,51.0,27.02,ESE,110,6.3,11.0,32,0.00,,---,0.00,VWS V14.01,2013-01-14 11:13:00,
2013-01-14 05:18:00,76.5,51.0,27.02,SE,127,8.3,8.3,32,0.00,,---,0.00,VWS V14.01,2013-01-14 11:18:00,
2013-01-14 05:23:00,76.5,51.0,27.02,SE,145,6.3,6.3,32,0.00,,---,0.00,VWS V14.01,2013-01-14 11:23:00,
2013-01-14 05:28:00,76.5,51.0,27.02,SE,146,4.9,5.8,32,0.00,,---,0.00,VWS V14.01,2013-01-14 11:28:00,
2013-01-14 05:33:00,76.5,51.0,27.02,SE,129,4.0,8.3,32,0.00,,---,0.00,VWS V14.01,2013-01-14 11:33:00,
2013-01-14 05:38:00,76.5,51.0,27.02,SE,130,4.0,12.3,32,0.00,,---,0.00,VWS V14.01,2013-01-14 11:38:00,
2013-01-14 05:43:00,76.5,51.0,27.02,ENE,77,6.3,7.2,32,0.00,,---,0.00,VWS V14.01,2013-01-14 11:43:00,
2013-01-14 05:48:00,76.5,51.0,27.02,East,96,6.3,6.3,32,0.00,,---,0.00,VWS V14.01,2013-01-14 11:48:00,
2013-01-14 05:53:00,76.5,51.0,27.05,SE,133,3.1,10.5,32,0.00,,---,0.00,VWS V14.01,2013-01-14 11:53:00,
2013-01-14 05:58:00,76.5,51.0,27.05,SE,140,6.3,8.3,32,0.00,,---,0.00,VWS V14.01,2013-01-14 11:58:00,
2013-01-14 06:03:00,76.5,51.0,27.05,SSE,156,8.1,8.1,32,0.00,,---,0.00,VWS V14.01,2013-01-14 12:03:00,
2013-01-14 06:08:00,76.5,51.0,27.05,SE,138,3.6,5.8,32,0.00,,---,0.00,VWS V14.01,2013-01-14 12:08:00,
2013-01-14 06:13:00,76.5,51.0,27.05,ENE,76,7.6,7.6,32,0.00,,---,0.00,VWS V14.01,2013-01-14 12:13:00,
2013-01-14 06:18:00,76.5,51.0,27.05,SE,130,9.2,9.2,32,0.00,,---,0.00,VWS V14.01,2013-01-14 12:18:00,
2013-01-14 06:23:00,76.5,51.0,27.05,ENE,62,3.1,9.2,32,0.00,,---,0.00,VWS V14.01,2013-01-14 12:23:00,
2013-01-14 06:28:00,76.5,51.0,27.02,ESE,119,2.7,12.8,32,0.00,,---,0.00,VWS V14.01,2013-01-14 12:28:00,
2013-01-14 06:33:00,76.5,51.0,27.02,SSE,156,11.0,11.0,32,0.00,,---,0.00,VWS V14.01,2013-01-14 12:33:00,
2013-01-14 06:38:00,76.5,51.0,27.02,East,100,10.5,10.5,32,0.00,,---,0.00,VWS V14.01,2013-01-14 12:38:00,
2013-01-14 06:43:00,76.5,51.0,27.02,SE,135,6.3,8.1,32,0.00,,---,0.00,VWS V14.01,2013-01-14 12:43:00,
2013-01-14 06:48:00,76.5,51.0,27.02,East,90,6.3,6.3,32,0.00,,---,0.00,VWS V14.01,2013-01-14 12:48:00,
2013-01-14 06:53:00,76.5,51.0,27.02,SE,138,5.8,10.5,32,0.00,,---,0.00,VWS V14.01,2013-01-14 12:53:00,
2013-01-14 06:58:00,76.5,51.0,27.02,SSE,160,6.3,9.6,32,0.00,,---,0.00,VWS V14.01,2013-01-14 12:58:00,
2013-01-14 07:03:00,76.5,51.0,27.02,SE,145,6.3,6.3,32,0.00,,---,0.00,VWS V14.01,2013-01-14 13:03:00,
2013-01-14 07:08:00,76.5,51.0,27.02,SSE,159,5.8,9.6,32,0.00,,---,0.00,VWS V14.01,2013-01-14 13:08:00,
2013-01-14 07:13:00,76.5,51.0,27.05,SE,128,3.1,8.7,32,0.00,,---,0.00,VWS V14.01,2013-01-14 13:13:00,
2013-01-14 07:18:00,76.5,51.0,27.05,ESE,115,5.8,5.8,32,0.00,,---,0.00,VWS V14.01,2013-01-14 13:18:00,
2013-01-14 07:23:00,76.5,51.0,27.05,SE,139,3.6,10.1,32,0.00,,---,0.00,VWS V14.01,2013-01-14 13:23:00,
2013-01-14 07:28:00,76.5,51.0,27.05,SSE,150,8.1,8.1,32,0.00,,---,0.00,VWS V14.01,2013-01-14 13:28:00,
2013-01-14 07:33:00,76.5,51.0,27.05,ESE,112,5.8,6.3,32,0.00,,---,0.00,VWS V14.01,2013-01-14 13:33:00,
2013-01-14 07:38:00,76.5,51.0,27.05,ESE,115,8.7,8.7,32,0.00,,---,0.00,VWS V14.01,2013-01-14 13:38:00,
2013-01-14 07:43:00,76.5,51.0,27.05,SSE,156,8.7,8.7,32,0.00,,---,0.00,VWS V14.01,2013-01-14 13:43:00,
2013-01-14 07:48:00,76.5,51.0,27.05,ESE,118,5.8,10.1,32,0.00,,---,0.00,VWS V14.01,2013-01-14 13:48:00,
2013-01-14 07:53:00,76.5,51.0,27.05,SE,131,3.1,8.1,32,0.00,,---,0.00,VWS V14.01,2013-01-14 13:53:00,
2013-01-14 07:58:00,76.5,51.0,27.05,SSE,149,13.6,13.6,32,0.00,,---,0.00,VWS V14.01,2013-01-14 13:58:00,
2013-01-14 08:03:00,76.5,51.0,27.05,ESE,122,5.4,10.1,32,0.00,,---,0.00,VWS V14.01,2013-01-14 14:03:00,
2013-01-14 08:08:00,76.5,51.0,27.05,SE,146,11.0,16.8,32,0.00,,---,0.00,VWS V14.01,2013-01-14 14:08:00,
2013-01-14 08:13:00,76.5,51.0,27.02,East,100,12.3,15.0,32,0.00,,---,0.00,VWS V14.01,2013-01-14 14:13:00,
2013-01-14 08:18:00,76.5,51.0,27.02,ENE,74,4.0,16.3,32,0.00,,---,0.00,VWS V14.01,2013-01-14 14:18:00,
2013-01-14 08:23:00,76.5,51.0,27.05,East,83,9.2,9.2,32,0.00,,---,0.00,VWS V14.01,2013-01-14 14:23:00,
2013-01-14 08:28:00,76.5,51.0,27.05,SW,214,8.3,10.1,32,0.00,,---,0.00,VWS V14.01,2013-01-14 14:28:00,
2013-01-14 08:33:00,76.5,51.0,27.05,SE,137,6.3,6.3,32,0.00,,---,0.00,VWS V14.01,2013-01-14 14:33:00,
2013-01-14 08:38:00,76.5,51.0,27.05,SSE,151,8.1,8.1,32,0.00,,---,0.00,VWS V14.01,2013-01-14 14:38:00,
2013-01-14 08:43:00,76.5,51.0,27.05,ENE,72,5.8,6.3,32,0.00,,---,0.00,VWS V14.01,2013-01-14 14:43:00,
2013-01-14 08:48:00,76.5,51.0,27.05,ESE,109,10.1,10.1,32,0.00,,---,0.00,VWS V14.01,2013-01-14 14:48:00,
2013-01-14 08:53:00,76.5,51.0,27.05,ESE,118,4.0,12.8,32,0.00,,---,0.00,VWS V14.01,2013-01-14 14:53:00,
2013-01-14 08:58:00,76.5,51.0,27.05,SE,128,11.0,11.0,32,0.00,,---,0.00,VWS V14.01,2013-01-14 14:58:00,
2013-01-14 09:03:00,76.5,51.0,27.05,East,82,8.3,11.0,32,0.00,,---,0.00,VWS V14.01,2013-01-14 15:03:00,
2013-01-14 09:08:00,76.5,51.0,27.08,East,101,5.8,5.8,32,0.00,,---,0.00,VWS V14.01,2013-01-14 15:08:00,
2013-01-14 09:13:00,76.5,51.0,27.08,ESE,121,6.3,10.1,32,0.00,,---,0.00,VWS V14.01,2013-01-14 15:13:00,
2013-01-14 09:18:00,76.5,51.0,27.08,East,94,3.6,6.3,32,0.00,,---,0.00,VWS V14.01,2013-01-14 15:18:00,
2013-01-14 09:23:00,76.5,51.0,27.08,ENE,65,3.6,4.0,32,0.00,,---,0.00,VWS V14.01,2013-01-14 15:23:00,
2013-01-14 09:28:00,76.5,51.0,27.08,East,97,5.8,5.8,32,0.00,,---,0.00,VWS V14.01,2013-01-14 15:28:00,
2013-01-14 09:33:00,76.5,51.0,27.08,NE,47,5.4,5.4,32,0.00,,---,0.00,VWS V14.01,2013-01-14 15:33:00,
2013-01-14 09:38:00,76.5,51.0,27.05,ESE,123,3.6,5.4,32,0.00,,---,0.00,VWS V14.01,2013-01-14 15:38:00,
2013-01-14 09:43:00,76.5,51.0,27.05,ENE,68,2.7,2.7,32,0.00,,---,0.00,VWS V14.01,2013-01-14 15:43:00,
2013-01-14 09:48:00,76.5,51.0,27.05,East,96,3.1,3.1,32,0.00,,---,0.00,VWS V14.01,2013-01-14 15:48:00,
2013-01-14 09:53:00,76.5,51.0,27.08,SE,124,8.7,8.7,32,0.00,,---,0.00,VWS V14.01,2013-01-14 15:53:00,
2013-01-14 09:58:00,76.5,51.0,27.08,SE,146,4.0,5.4,32,0.00,,---,0.00,VWS V14.01,2013-01-14 15:58:00,
2013-01-14 10:03:00,76.5,51.0,27.08,ESE,102,4.9,12.3,32,0.00,,---,0.00,VWS V14.01,2013-01-14 16:03:00,
2013-01-14 10:08:00,76.5,51.0,27.08,ESE,109,5.4,5.4,32,0.00,,---,0.00,VWS V14.01,2013-01-14 16:08:00,
2013-01-14 10:13:00,76.5,51.0,27.08,ESE,121,6.3,6.3,32,0.00,,---,0.00,VWS V14.01,2013-01-14 16:13:00,
2013-01-14 10:18:00,76.5,51.0,27.08,East,94,6.7,6.7,32,0.00,,---,0.00,VWS V14.01,2013-01-14 16:18:00,
2013-01-14 10:23:00,76.5,51.0,27.08,ENE,71,4.0,4.0,32,0.00,,---,0.00,VWS V14.01,2013-01-14 16:23:00,
2013-01-14 10:28:00,76.5,51.0,27.05,ESE,104,5.4,6.3,32,0.00,,---,0.00,VWS V14.01,2013-01-14 16:28:00,
2013-01-14 10:33:00,76.5,51.0,27.05,SSE,156,4.9,4.9,32,0.00,,---,0.00,VWS V14.01,2013-01-14 16:33:00,
2013-01-14 10:38:00,76.5,51.0,27.05,East,99,7.6,13.2,32,0.00,,---,0.00,VWS V14.01,2013-01-14 16:38:00,
2013-01-14 10:43:00,76.5,51.0,27.05,ESE,104,8.7,8.7,32,0.00,,---,0.00,VWS V14.01,2013-01-14 16:43:00,
2013-01-14 10:48:00,76.5,51.0,27.05,SE,125,6.3,10.1,32,0.00,,---,0.00,VWS V14.01,2013-01-14 16:48:00,
2013-01-14 10:53:00,76.5,51.0,27.05,South,179,3.6,8.1,32,0.00,,---,0.00,VWS V14.01,2013-01-14 16:53:00,
2013-01-14 10:58:00,76.5,51.0,27.05,ENE,69,3.1,5.8,32,0.00,,---,0.00,VWS V14.01,2013-01-14 16:58:00,
2013-01-14 11:03:00,76.5,51.0,27.05,SE,127,2.2,3.1,32,0.00,,---,0.00,VWS V14.01,2013-01-14 17:03:00,
2013-01-14 11:08:00,76.5,51.0,27.05,ESE,111,5.4,6.7,32,0.00,,---,0.00,VWS V14.01,2013-01-14 17:08:00,
2013-01-14 11:13:00,76.5,51.0,27.05,SSE,149,2.7,5.8,32,0.00,,---,0.00,VWS V14.01,2013-01-14 17:13:00,
2013-01-14 11:18:00,76.5,51.0,27.05,East,94,5.8,5.8,32,0.00,,---,0.00,VWS V14.01,2013-01-14 17:18:00,
2013-01-14 11:23:00,76.5,51.0,27.05,ESE,110,8.1,8.1,32,0.00,,---,0.00,VWS V14.01,2013-01-14 17:23:00,
2013-01-14 11:28:00,76.5,51.0,27.05,East,90,5.4,10.5,32,0.00,,---,0.00,VWS V14.01,2013-01-14 17:28:00,
2013-01-14 11:33:00,76.5,51.0,27.05,SSW,194,4.0,5.4,32,0.00,,---,0.00,VWS V14.01,2013-01-14 17:33:00,
2013-01-14 11:38:00,76.5,51.0,27.05,NE,41,5.4,5.4,32,0.00,,---,0.00,VWS V14.01,2013-01-14 17:38:00,
2013-01-14 11:43:00,76.5,51.0,27.05,SSE,154,4.9,4.9,32,0.00,,---,0.00,VWS V14.01,2013-01-14 17:43:00,
2013-01-14 11:48:00,76.5,51.0,27.05,SSE,148,3.6,7.2,32,0.00,,---,0.00,VWS V14.01,2013-01-14 17:48:00,
2013-01-14 11:53:00,76.5,51.0,27.05,SSE,148,2.7,2.7,32,0.00,,---,0.00,VWS V14.01,2013-01-14 17:53:00,
2013-01-14 11:58:00,76.5,51.0,27.05,SE,125,3.1,8.7,32,0.00,,---,0.00,VWS V14.01,2013-01-14 17:58:00,
2013-01-14 12:03:00,76.5,51.0,27.05,ESE,112,3.6,3.6,32,0.00,,---,0.00,VWS V14.01,2013-01-14 18:03:00,
2013-01-14 12:08:00,76.5,51.0,27.05,ESE,112,2.7,3.6,32,0.00,,---,0.00,VWS V14.01,2013-01-14 18:08:00,
2013-01-14 12:13:00,76.5,51.0,27.02,SE,124,5.4,5.4,32,0.00,,---,0.00,VWS V14.01,2013-01-14 18:13:00,
2013-01-14 12:18:00,76.5,51.0,27.02,South,182,0.0,2.7,32,0.00,,---,0.00,VWS V14.01,2013-01-14 18:18:00,
2013-01-14 12:23:00,76.5,51.0,27.02,ESE,122,5.4,5.4,32,0.00,,---,0.00,VWS V14.01,2013-01-14 18:23:00,
2013-01-14 12:28:00,76.5,51.0,27.02,SE,124,2.7,2.7,32,0.00,,---,0.00,VWS V14.01,2013-01-14 18:28:00,
2013-01-14 12:33:00,76.5,51.0,27.02,ESE,110,2.2,2.2,32,0.00,,---,0.00,VWS V14.01,2013-01-14 18:33:00,
2013-01-14 12:38:00,76.5,51.0,27.02,ENE,75,3.6,3.6,32,0.00,,---,0.00,VWS V14.01,2013-01-14 18:38:00,
2013-01-14 12:43:00,76.5,51.0,27.02,South,179,4.9,4.9,32,0.00,,---,0.00,VWS V14.01,2013-01-14 18:43:00,
2013-01-14 12:48:00,76.5,51.0,27.02,SE,141,3.1,5.4,32,0.00,,---,0.00,VWS V14.01,2013-01-14 18:48:00,
2013-01-14 12:53:00,76.5,51.0,27.02,East,79,8.7,8.7,32,0.00,,---,0.00,VWS V14.01,2013-01-14 18:53:00,
2013-01-14 12:58:00,76.5,51.0,27.02,East,84,8.3,8.3,32,0.00,,---,0.00,VWS V14.01,2013-01-14 18:58:00,
2013-01-14 13:03:00,76.5,51.0,27.02,SE,133,2.7,5.4,32,0.00,,---,0.00,VWS V14.01,2013-01-14 19:03:00,
2013-01-14 13:08:00,76.5,51.0,27.02,South,177,3.1,3.1,32,0.00,,---,0.00,VWS V14.01,2013-01-14 19:08:00,
2013-01-14 13:13:00,76.5,51.0,27.02,South,183,0.0,0.0,32,0.00,,---,0.00,VWS V14.01,2013-01-14 19:13:00,
2013-01-14 13:18:00,76.5,51.0,27.02,East,94,5.4,5.4,32,0.00,,---,0.00,VWS V14.01,2013-01-14 19:18:00,
2013-01-14 13:23:00,76.5,51.0,27.02,East,98,3.6,5.4,32,0.00,,---,0.00,VWS V14.01,2013-01-14 19:23:00,
2013-01-14 13:28:00,76.5,51.0,27.02,East,86,5.4,5.8,32,0.00,,---,0.00,VWS V14.01,2013-01-14 19:28:00,
2013-01-14 13:33:00,76.5,51.0,27.02,SE,127,5.8,5.8,32,0.00,,---,0.00,VWS V14.01,2013-01-14 19:33:00,
2013-01-14 13:38:00,76.5,51.0,27.02,East,100,4.9,6.3,32,0.00,,---,0.00,VWS V14.01,2013-01-14 19:38:00,
2013-01-14 13:43:00,76.5,51.0,27.02,ESE,119,4.9,10.1,32,0.00,,---,0.00,VWS V14.01,2013-01-14 19:43:00,
2013-01-14 13:48:00,76.5,51.0,27.02,ESE,112,3.1,4.9,32,0.00,,---,0.00,VWS V14.01,2013-01-14 19:48:00,
2013-01-14 13:53:00,76.5,51.0,26.99,East,84,4.0,4.0,32,0.00,,---,0.00,VWS V14.01,2013-01-14 19:53:00,
2013-01-14 13:58:00,76.5,51.0,26.99,ENE,74,4.9,6.3,32,0.00,,---,0.00,VWS V14.01,2013-01-14 19:58:00,
2013-01-14 14:03:00,76.5,51.0,26.99,ESE,110,4.0,8.1,32,0.00,,---,0.00,VWS V14.01,2013-01-14 20:03:00,
2013-01-14 14:08:00,76.5,51.0,26.99,East,96,11.0,11.0,32,0.00,,---,0.00,VWS V14.01,2013-01-14 20:08:00,
2013-01-14 14:13:00,76.5,51.0,27.02,East,79,3.1,3.1,32,0.00,,---,0.00,VWS V14.01,2013-01-14 20:13:00,
2013-01-14 14:18:00,76.5,51.0,27.02,East,81,9.6,9.6,32,0.00,,---,0.00,VWS V14.01,2013-01-14 20:18:00,
2013-01-14 14:23:00,76.5,51.0,27.02,ESE,117,3.6,4.0,32,0.00,,---,0.00,VWS V14.01,2013-01-14 20:23:00,
2013-01-14 14:28:00,76.5,51.0,27.02,SE,137,10.1,10.1,32,0.00,,---,0.00,VWS V14.01,2013-01-14 20:28:00,
2013-01-14 14:33:00,76.5,51.0,27.02,SE,130,3.1,6.3,32,0.00,,---,0.00,VWS V14.01,2013-01-14 20:33:00,
2013-01-14 14:38:00,76.5,51.0,26.99,East,82,3.1,3.1,32,0.00,,---,0.00,VWS V14.01,2013-01-14 20:38:00,
2013-01-14 14:43:00,76.5,51.0,26.99,East,98,3.6,4.0,32,0.00,,---,0.00,VWS V14.01,2013-01-14 20:43:00,
2013-01-14 14:48:00,76.5,51.0,26.99,ESE,108,7.2,8.7,32,0.00,,---,0.00,VWS V14.01,2013-01-14 20:48:00,
2013-01-14 14:53:00,76.5,51.0,27.02,SSE,154,3.6,5.8,32,0.00,,---,0.00,VWS V14.01,2013-01-14 20:53:00,
2013-01-14 14:58:00,76.5,51.0,27.02,ESE,114,5.8,5.8,32,0.00,,---,0.00,VWS V14.01,2013-01-14 20:58:00,
2013-01-14 15:03:00,76.5,51.0,27.02,SE,140,5.8,6.7,32,0.00,,---,0.00,VWS V14.01,2013-01-14 21:03:00,
2013-01-14 15:08:00,76.5,51.0,27.02,SE,139,3.1,4.9,32,0.00,,---,0.00,VWS V14.01,2013-01-14 21:08:00,
2013-01-14 15:13:00,76.5,51.0,26.99,East,93,5.4,8.3,32,0.00,,---,0.00,VWS V14.01,2013-01-14 21:13:00,
2013-01-14 15:18:00,76.5,51.0,26.99,ENE,76,6.3,6.3,32,0.00,,---,0.00,VWS V14.01,2013-01-14 21:18:00,
2013-01-14 15:23:00,76.5,51.0,26.99,SE,142,2.2,6.3,32,0.00,,---,0.00,VWS V14.01,2013-01-14 21:23:00,
2013-01-14 15:28:00,76.5,51.0,26.99,SSE,148,8.1,8.1,32,0.00,,---,0.00,VWS V14.01,2013-01-14 21:28:00,
2013-01-14 15:33:00,76.5,51.0,26.99,SE,129,5.8,5.8,32,0.00,,---,0.00,VWS V14.01,2013-01-14 21:33:00,
2013-01-14 15:38:00,76.5,51.0,26.99,SSE,148,3.6,6.3,32,0.00,,---,0.00,VWS V14.01,2013-01-14 21:38:00,
2013-01-14 15:43:00,76.5,51.0,26.99,ESE,114,3.1,6.3,32,0.00,,---,0.00,VWS V14.01,2013-01-14 21:43:00,
2013-01-14 15:48:00,76.5,51.0,26.99,SSE,158,4.0,6.3,32,0.00,,---,0.00,VWS V14.01,2013-01-14 21:48:00,
2013-01-14 15:53:00,76.5,51.0,26.99,East,87,5.8,5.8,32,0.00,,---,0.00,VWS V14.01,2013-01-14 21:53:00,
2013-01-14 15:58:00,76.5,51.0,27.02,SE,140,4.0,5.8,32,0.00,,---,0.00,VWS V14.01,2013-01-14 21:58:00,
2013-01-14 16:03:00,76.5,51.0,27.02,NNE,28,9.6,10.5,32,0.00,,---,0.00,VWS V14.01,2013-01-14 22:03:00,
2013-01-14 16:08:00,76.5,51.0,27.02,SSE,156,5.4,5.4,32,0.00,,---,0.00,VWS V14.01,2013-01-14 22:08:00,
2013-01-14 16:13:00,76.5,51.0,27.02,East,84,7.6,8.1,32,0.00,,---,0.00,VWS V14.01,2013-01-14 22:13:00,
2013-01-14 16:18:00,76.5,51.0,27.02,SE,144,8.7,10.5,32,0.00,,---,0.00,VWS V14.01,2013-01-14 22:18:00,
2013-01-14 16:23:00,76.5,51.0,27.02,SE,141,10.1,12.3,32,0.00,,---,0.00,VWS V14.01,2013-01-14 22:23:00,
2013-01-14 16:28:00,76.5,51.0,27.02,SSE,151,8.3,8.3,32,0.00,,---,0.00,VWS V14.01,2013-01-14 22:28:00,
2013-01-14 16:33:00,76.5,51.0,27.02,East,85,6.3,6.3,32,0.00,,---,0.00,VWS V14.01,2013-01-14 22:33:00,
2013-01-14 16:38:00,76.5,51.0,27.02,SE,127,3.6,5.4,32,0.00,,---,0.00,VWS V14.01,2013-01-14 22:38:00,
2013-01-14 16:43:00,76.5,51.0,27.02,ESE,112,4.0,5.4,32,0.00,,---,0.00,VWS V14.01,2013-01-14 22:43:00,
2013-01-14 16:48:00,76.5,51.0,27.02,East,82,5.8,5.8,32,0.00,,---,0.00,VWS V14.01,2013-01-14 22:48:00,
2013-01-14 16:53:00,76.5,51.0,27.02,SE,133,8.7,8.7,32,0.00,,---,0.00,VWS V14.01,2013-01-14 22:53:00,
2013-01-14 16:58:00,76.5,51.0,27.02,SE,131,6.3,6.3,32,0.00,,---,0.00,VWS V14.01,2013-01-14 22:58:00,
2013-01-14 17:03:00,76.5,51.0,27.02,SE,130,3.1,8.3,32,0.00,,---,0.00,VWS V14.01,2013-01-14 23:03:00,
2013-01-14 17:08:00,76.5,51.0,27.02,SE,139,3.1,6.3,32,0.00,,---,0.00,VWS V14.01,2013-01-14 23:08:00,
2013-01-14 17:13:00,76.5,51.0,27.02,South,173,8.1,8.1,32,0.00,,---,0.00,VWS V14.01,2013-01-14 23:13:00,
2013-01-14 17:18:00,76.5,51.0,27.02,SSE,147,10.5,10.5,32,0.00,,---,0.00,VWS V14.01,2013-01-14 23:18:00,
2013-01-14 17:23:00,76.5,51.0,27.02,SSE,154,6.3,6.3,32,0.00,,---,0.00,VWS V14.01,2013-01-14 23:23:00,
2013-01-14 17:28:00,76.5,51.0,27.02,SE,124,5.4,11.0,32,0.00,,---,0.00,VWS V14.01,2013-01-14 23:28:00,
2013-01-14 17:33:00,76.5,51.0,27.02,SE,141,2.7,3.1,32,0.00,,---,0.00,VWS V14.01,2013-01-14 23:33:00,
2013-01-14 17:38:00,76.5,51.0,27.02,SE,124,5.4,5.4,32,0.00,,---,0.00,VWS V14.01,2013-01-14 23:38:00,
2013-01-14 17:43:00,76.5,51.0,27.02,SE,133,4.9,5.8,32,0.00,,---,0.00,VWS V14.01,2013-01-14 23:43:00,
2013-01-14 17:48:00,76.5,51.0,27.02,SE,128,5.4,7.6,32,0.00,,---,0.00,VWS V14.01,2013-01-14 23:48:00,
2013-01-14 17:53:00,76.5,51.0,27.02,SE,138,4.0,4.0,32,0.00,,---,0.00,VWS V14.01,2013-01-14 23:53:00,
2013-01-14 17:58:00,76.5,51.0,27.05,SE,132,5.4,7.6,32,0.00,,---,0.00,VWS V14.01,2013-01-14 23:58:00,
2013-01-14 18:03:00,76.5,51.0,27.05,East,101,4.0,6.3,32,0.00,,---,0.00,VWS V14.01,2013-01-15 00:03:00,
2013-01-14 18:08:00,76.5,51.0,27.05,SE,133,3.1,4.9,32,0.00,,---,0.00,VWS V14.01,2013-01-15 00:08:00,
2013-01-14 18:13:00,76.5,51.0,27.02,ESE,111,4.9,7.2,32,0.00,,---,0.00,VWS V14.01,2013-01-15 00:13:00,
2013-01-14 18:18:00,76.5,51.0,27.02,SE,128,4.0,5.4,32,0.00,,---,0.00,VWS V14.01,2013-01-15 00:18:00,
2013-01-14 18:23:00,76.5,51.0,27.02,SE,132,12.3,12.3,32,0.00,,---,0.00,VWS V14.01,2013-01-15 00:23:00,
2013-01-14 18:28:00,76.5,51.0,27.05,SSE,152,5.4,5.4,32,0.00,,---,0.00,VWS V14.01,2013-01-15 00:28:00,
2013-01-14 18:33:00,76.5,51.0,27.05,SSE,162,7.6,9.2,32,0.00,,---,0.00,VWS V14.01,2013-01-15 00:33:00,
2013-01-14 18:38:00,76.5,51.0,27.05,SE,133,5.4,8.7,32,0.00,,---,0.00,VWS V14.01,2013-01-15 00:38:00,
2013-01-14 18:43:00,76.5,51.0,27.02,ESE,112,3.6,7.6,32,0.00,,---,0.00,VWS V14.01,2013-01-15 00:43:00,
2013-01-14 18:48:00,76.5,51.0,27.02,SE,129,5.8,8.7,32,0.00,,---,0.00,VWS V14.01,2013-01-15 00:48:00,
2013-01-14 18:53:00,76.5,51.0,27.02,ESE,115,5.4,5.4,32,0.00,,---,0.00,VWS V14.01,2013-01-15 00:53:00,
2013-01-14 18:58:00,76.5,51.0,27.02,East,90,5.8,5.8,32,0.00,,---,0.00,VWS V14.01,2013-01-15 00:58:00,
2013-01-14 19:03:00,76.5,51.0,27.02,ESE,109,8.3,8.3,32,0.00,,---,0.00,VWS V14.01,2013-01-15 01:03:00,
2013-01-14 19:08:00,76.5,51.0,27.02,SE,143,3.1,3.1,32,0.00,,---,0.00,VWS V14.01,2013-01-15 01:08:00,
2013-01-14 19:13:00,76.5,51.0,27.05,SE,136,5.4,7.6,32,0.00,,---,0.00,VWS V14.01,2013-01-15 01:13:00,
2013-01-14 19:18:00,76.5,51.0,27.05,SE,136,5.4,5.4,32,0.00,,---,0.00,VWS V14.01,2013-01-15 01:18:00,
2013-01-14 19:23:00,76.5,51.0,27.05,SSE,153,7.2,7.2,32,0.00,,---,0.00,VWS V14.01,2013-01-15 01:23:00,
2013-01-14 19:28:00,76.5,51.0,27.05,ESE,114,11.0,11.0,32,0.00,,---,0.00,VWS V14.01,2013-01-15 01:28:00,
2013-01-14 19:33:00,76.5,51.0,27.05,East,82,14.5,14.5,32,0.00,,---,0.00,VWS V14.01,2013-01-15 01:33:00,
2013-01-14 19:38:00,76.5,51.0,27.05,ESE,111,8.1,8.1,32,0.00,,---,0.00,VWS V14.01,2013-01-15 01:38:00,
2013-01-14 19:43:00,76.5,51.0,27.05,East,85,7.6,7.6,32,0.00,,---,0.00,VWS V14.01,2013-01-15 01:43:00,
2013-01-14 19:48:00,76.5,51.0,27.05,ESE,107,8.3,8.3,32,0.00,,---,0.00,VWS V14.01,2013-01-15 01:48:00,
2013-01-14 19:53:00,76.5,51.0,27.05,ENE,60,5.8,5.8,32,0.00,,---,0.00,VWS V14.01,2013-01-15 01:53:00,
2013-01-14 19:58:00,76.5,51.0,27.05,ESE,122,5.4,5.4,32,0.00,,---,0.00,VWS V14.01,2013-01-15 01:58:00,
2013-01-14 20:03:00,76.5,51.0,27.05,SE,127,5.8,5.8,32,0.00,,---,0.00,VWS V14.01,2013-01-15 02:03:00,
2013-01-14 20:08:00,76.5,51.0,27.05,East,90,3.1,3.1,32,0.00,,---,0.00,VWS V14.01,2013-01-15 02:08:00,
2013-01-14 20:13:00,76.5,51.0,27.05,ESE,123,6.3,6.3,32,0.00,,---,0.00,VWS V14.01,2013-01-15 02:13:00,
2013-01-14 20:18:00,76.5,51.0,27.05,SE,133,6.3,6.3,32,0.00,,---,0.00,VWS V14.01,2013-01-15 02:18:00,
2013-01-14 20:23:00,76.5,51.0,27.05,East,99,9.6,9.6,32,0.00,,---,0.00,VWS V14.01,2013-01-15 02:23:00,
2013-01-14 20:28:00,76.5,51.0,27.08,ESE,104,5.8,5.8,32,0.00,,---,0.00,VWS V14.01,2013-01-15 02:28:00,
2013-01-14 20:33:00,76.5,51.0,27.08,ESE,104,3.1,3.1,32,0.00,,---,0.00,VWS V14.01,2013-01-15 02:33:00,
2013-01-14 20:38:00,76.5,51.0,27.08,SSE,151,5.8,7.2,32,0.00,,---,0.00,VWS V14.01,2013-01-15 02:38:00,
2013-01-14 20:43:00,76.5,51.0,27.05,SE,128,8.7,8.7,32,0.00,,---,0.00,VWS V14.01,2013-01-15 02:43:00,
2013-01-14 20:48:00,76.5,51.0,27.05,South,181,6.3,6.3,32,0.00,,---,0.00,VWS V14.01,2013-01-15 02:48:00,
2013-01-14 20:53:00,76.5,51.0,27.05,SE,133,5.8,6.3,32,0.00,,---,0.00,VWS V14.01,2013-01-15 02:53:00,
2013-01-14 20:58:00,76.5,51.0,27.05,ESE,122,2.2,4.0,32,0.00,,---,0.00,VWS V14.01,2013-01-15 02:58:00,
2013-01-14 21:03:00,76.5,51.0,27.05,SE,126,3.6,4.0,32,0.00,,---,0.00,VWS V14.01,2013-01-15 03:03:00,
2013-01-14 21:08:00,76.5,51.0,27.05,ESE,119,3.1,4.0,32,0.00,,---,0.00,VWS V14.01,2013-01-15 03:08:00,
2013-01-14 21:13:00,76.5,51.0,27.05,SE,133,6.3,12.8,32,0.00,,---,0.00,VWS V14.01,2013-01-15 03:13:00,
2013-01-14 21:18:00,76.5,51.0,27.05,SSE,156,15.0,17.9,32,0.00,,---,0.00,VWS V14.01,2013-01-15 03:18:00,
2013-01-14 21:23:00,76.5,51.0,27.05,SSE,150,6.3,7.6,32,0.00,,---,0.00,VWS V14.01,2013-01-15 03:23:00,
2013-01-14 21:28:00,76.5,51.0,27.05,SE,136,5.4,5.4,32,0.00,,---,0.00,VWS V14.01,2013-01-15 03:28:00,
2013-01-14 21:33:00,76.5,51.0,27.05,South,170,5.4,5.4,32,0.00,,---,0.00,VWS V14.01,2013-01-15 03:33:00,
2013-01-14 21:38:00,76.5,51.0,27.05,East,98,6.3,6.3,32,0.00,,---,0.00,VWS V14.01,2013-01-15 03:38:00,
2013-01-14 21:43:00,76.5,51.0,27.05,SE,145,5.4,8.1,32,0.00,,---,0.00,VWS V14.01,2013-01-15 03:43:00,
2013-01-14 21:48:00,76.5,51.0,27.05,ESE,110,6.3,10.1,32,0.00,,---,0.00,VWS V14.01,2013-01-15 03:48:00,
2013-01-14 21:52:00,76.5,51.0,27.05,SSE,158,9.2,9.2,32,0.00,,---,0.00,VWS V14.01,2013-01-15 03:52:00,
2013-01-14 21:58:00,76.5,51.0,27.05,SE,144,5.4,5.4,32,0.00,,---,0.00,VWS V14.01,2013-01-15 03:58:00,
2013-01-14 22:02:00,76.5,51.0,27.05,SSE,152,5.4,6.3,32,0.00,,---,0.00,VWS V14.01,2013-01-15 04:02:00,
2013-01-14 22:07:00,76.5,51.0,27.05,SE,141,5.8,5.8,32,0.00,,---,0.00,VWS V14.01,2013-01-15 04:07:00,
2013-01-14 22:13:00,76.5,51.0,27.05,SE,127,3.6,4.9,32,0.00,,---,0.00,VWS V14.01,2013-01-15 04:13:00,
2013-01-14 22:18:00,76.5,51.0,27.05,ESE,120,7.6,8.3,32,0.00,,---,0.00,VWS V14.01,2013-01-15 04:18:00,
2013-01-14 22:22:00,76.5,51.0,27.05,SSE,164,3.6,4.0,32,0.00,,---,0.00,VWS V14.01,2013-01-15 04:22:00,
2013-01-14 22:27:00,76.5,51.0,27.05,SE,136,8.7,8.7,32,0.00,,---,0.00,VWS V14.01,2013-01-15 04:27:00,
2013-01-14 22:32:00,76.5,51.0,27.05,South,176,10.5,10.5,32,0.00,,---,0.00,VWS V14.01,2013-01-15 04:32:00,
2013-01-14 22:37:00,76.5,51.0,27.05,SSE,149,5.8,5.8,32,0.00,,---,0.00,VWS V14.01,2013-01-15 04:37:00,
2013-01-14 22:42:00,76.5,51.0,27.05,SE,135,6.3,6.3,32,0.00,,---,0.00,VWS V14.01,2013-01-15 04:42:00,
2013-01-14 22:47:00,76.5,51.0,27.05,SE,146,12.3,12.3,32,0.00,,---,0.00,VWS V14.01,2013-01-15 04:47:00,
2013-01-14 22:52:00,76.5,51.0,27.05,SE,141,8.3,8.3,32,0.00,,---,0.00,VWS V14.01,2013-01-15 04:52:00,
2013-01-14 22:57:00,76.5,51.0,27.05,ESE,111,8.1,8.7,32,0.00,,---,0.00,VWS V14.01,2013-01-15 04:57:00,
2013-01-14 23:00:00,76.5,51.0,27.05,SE,140,6.3,6.3,32,0.00,,---,0.00,VWS V14.01,2013-01-15 05:00:00,
2013-01-14 23:01:00,76.5,51.0,27.05,SE,134,4.5,10.5,32,0.00,,---,0.00,VWS V14.01,2013-01-15 05:01:00,
2013-01-14 23:02:00,76.5,51.0,27.05,SE,140,6.3,7.6,32,0.00,,---,0.00,VWS V14.01,2013-01-15 05:02:00,
2013-01-14 23:07:00,76.5,51.0,27.05,SE,131,4.0,8.3,32,0.00,,---,0.00,VWS V14.01,2013-01-15 05:07:00,
2013-01-14 23:12:00,76.5,51.0,27.02,East,96,3.1,6.3,32,0.00,,---,0.00,VWS V14.01,2013-01-15 05:12:00,
2013-01-14 23:17:00,76.5,51.0,27.02,ESE,121,9.6,14.5,32,0.00,,---,0.00,VWS V14.01,2013-01-15 05:17:00,
2013-01-14 23:22:00,76.5,51.0,27.02,SSE,147,5.4,7.6,32,0.00,,---,0.00,VWS V14.01,2013-01-15 05:22:00,
2013-01-14 23:27:00,76.5,51.0,27.02,SSE,150,6.3,8.1,32,0.00,,---,0.00,VWS V14.01,2013-01-15 05:27:00,
2013-01-14 23:32:00,76.5,51.0,27.02,ESE,118,5.4,7.6,32,0.00,,---,0.00,VWS V14.01,2013-01-15 05:32:00,
2013-01-14 23:37:00,76.5,51.0,27.02,SSE,163,8.1,8.3,32,0.00,,---,0.00,VWS V14.01,2013-01-15 05:37:00,
2013-01-14 23:42:00,76.5,51.0,27.02,ESE,108,6.3,8.7,32,0.00,,---,0.00,VWS V14.01,2013-01-15 05:42:00,
2013-01-14 23:47:00,76.5,51.0,27.02,ESE,119,3.6,6.3,32,0.00,,---,0.00,VWS V14.01,2013-01-15 05:47:00,
2013-01-14 23:52:00,76.5,51.0,27.02,SSE,148,11.0,11.0,32,0.00,,---,0.00,VWS V14.01,2013-01-15 05:52:00,
2013-01-14 23:57:00,76.5,51.0,27.02,East,98,5.8,7.2,32,0.00,,---,0.00,VWS V14.01,2013-01-15 05:57:00,